Latest Coastal Weather Observations for Truscott

IDD60701

Issued at 1:51 am CST Sunday 24 May 2015 (issued every 10 minutes, with the page automatically refreshed every 10 minutes)

About coastal observations | Map of coastal stations | Coastal observations for NT | Marine services | Other Formats
Station Details ID: 001020 Name: TRUSCOTT Lat: -14.09 Lon: 126.39 Height: 51.0 m
Data from the previous 72 hours. | See also: Recent months at Truscott
Date/Time
CST
Temp

°C
Wind Pressure Rain
since 9am
mm
Weather Cloud Vis
km
Sea
Height
m
Swell
Dir
 
Speed
knots
Gust
knots
hPa Trend Height
m
Period
s
Dir
24/01:41am 21.3 E 5 6 1014.4 - 0.0 - - 10 - - - -
24/01:30am 21.6 E 4 5 1014.0 - 0.0 - - 4 - - - -
24/01:22am 21.4 E 4 5 1014.5 - 0.0 - - 5 - - - -
24/01:00am 22.4 ESE 4 5 1014.7 - 0.0 - - 10 - - - -
24/12:30am 22.5 SE 4 6 1014.8 - 0.0 - - 9 - - - -
24/12:00am 22.4 SE 4 6 1014.9 - 0.0 - - 10 - - - -
 
Date/Time
CST
Temp

°C
Wind Pressure Rain
since 9am
mm
Weather Cloud Vis
km
Sea
Height
m
Swell
Dir
 
Speed
knots
Gust
knots
hPa Trend Height
m
Period
s
Dir
23/11:30pm 22.1 ESE 4 5 1014.8 - 0.0 - - 10 - - - -
23/11:00pm 21.4 ESE 4 4 1014.6 - 0.0 - - 10 - - - -
23/10:30pm 22.1 E 3 4 1014.1 - 0.0 - - 10 - - - -
23/10:00pm 23.1 E 4 5 1014.6 - 0.0 - - 10 - - - -
23/09:30pm 23.7 E 4 6 1014.6 - 0.0 - - 10 - - - -
23/09:00pm 23.4 E 4 5 1014.4 - 0.0 - - 10 - - - -
23/08:30pm 23.5 ENE 3 4 1014.2 - 0.0 - - 10 - - - -
23/08:00pm 23.9 NE 3 4 1014.2 - 0.0 - - 10 - - - -
23/07:30pm 25.0 ENE 3 4 1013.4 - 0.0 - - 10 - - - -
23/07:00pm 26.4 NE 3 5 1013.5 - 0.0 - - 10 - - - -
23/06:30pm 27.6 NE 4 7 1013.2 - 0.0 - - 10 - - - -
23/06:00pm 28.9 NE 5 9 1013.1 - 0.0 - - 10 - - - -
23/05:30pm 29.9 NE 6 10 1012.8 - 0.0 - - 10 - - - -
23/05:00pm 30.6 ENE 7 12 1012.9 - 0.0 - - 10 - - - -
23/04:30pm 30.8 NE 9 13 1012.2 - 0.0 - - 10 - - - -
23/04:00pm 31.2 E 9 11 1012.9 - 0.0 - - 10 - - - -
23/03:30pm 31.1 E 8 13 1013.1 - 0.0 - - 10 - - - -
23/03:00pm 31.1 ENE 9 14 1013.3 - 0.0 - - 10 - - - -
23/02:30pm 31.0 ENE 10 14 1013.7 - 0.0 - - 10 - - - -
23/02:00pm 30.8 ENE 10 17 1014.1 - 0.0 - - 10 - - - -
23/01:30pm 30.8 E 8 13 1014.2 - 0.0 - - 10 - - - -
23/01:00pm 30.2 E 10 16 1015.3 - 0.0 - - 10 - - - -
23/12:30pm 29.7 E 10 17 1015.7 - 0.0 - - 10 - - - -
23/12:00pm 29.7 E 8 14 1015.9 - 0.0 - - 10 - - - -
23/11:30am 29.0 E 12 18 1016.2 - 0.0 - - 10 - - - -
23/11:00am 28.5 E 11 16 1016.4 - 0.0 - - 10 - - - -
23/10:30am 27.8 E 11 18 1016.3 - 0.0 - - 10 - - - -
23/10:00am 27.6 E 11 17 1016.8 - 0.0 - - 10 - - - -
23/09:30am 26.6 ESE 8 12 1016.9 - 0.0 - - 10 - - - -
23/09:00am 25.4 ESE 7 11 1016.6 - 0.0 - - 10 - - - -
23/08:30am 24.6 ESE 6 9 1016.5 - 0.0 - - 10 - - - -
23/08:00am 23.5 ESE 5 7 1016.2 - 0.0 - - 10 - - - -
23/07:30am 22.7 ESE 4 6 1015.6 - 0.0 - - 10 - - - -
23/07:00am 22.8 ESE 5 6 1015.6 - 0.0 - - 10 - - - -
23/06:30am 22.5 ESE 4 5 1015.4 - 0.0 - - 10 - - - -
23/06:00am 22.8 SE 4 5 1015.2 - 0.0 - - 10 - - - -
23/05:30am 22.4 SSE 4 5 1015.0 - 0.0 - - 10 - - - -
23/05:00am 23.0 SSE 4 6 1014.9 - 0.0 - - 10 - - - -
23/04:30am 22.7 SSE 4 5 1014.4 - 0.0 - - 10 - - - -
23/04:00am 22.1 S 4 5 1014.9 - 0.0 - - 10 - - - -
23/03:30am 22.2 CALM 0 0 1014.9 - 0.0 - Partly cloudy 10 - - - -
23/03:00am 22.5 CALM 0 0 1015.0 - 0.0 - - 10 - - - -
23/02:30am 22.9 SE 3 4 1015.0 - 0.0 - - 10 - - - -
23/02:00am 22.9 ESE 4 4 1015.1 - 0.0 - - 10 - - - -
23/01:30am 23.0 E 4 6 1015.0 - 0.0 - - 10 - - - -
23/01:00am 23.4 E 4 5 1015.4 - 0.0 - - 10 - - - -
23/12:30am 23.6 E 4 5 1015.3 - 0.0 - - 10 - - - -
23/12:00am 23.8 E 4 5 1015.6 - 0.0 - - 10 - - - -
 
Date/Time
CST
Temp

°C
Wind Pressure Rain
since 9am
mm
Weather Cloud Vis
km
Sea
Height
m
Swell
Dir
 
Speed
knots
Gust
knots
hPa Trend Height
m
Period
s
Dir
22/11:30pm 23.8 ENE 4 5 1015.7 - 0.0 - - 10 - - - -
22/11:00pm 24.2 ENE 4 5 1015.7 - 0.0 - - 10 - - - -
22/10:30pm 24.3 ENE 4 5 1015.3 - 0.0 - - 10 - - - -
22/10:00pm 24.3 E 4 4 1015.5 - 0.0 - - 10 - - - -
22/09:30pm 24.8 ENE 3 4 1015.5 - 0.0 - - 10 - - - -
22/09:00pm 25.3 ENE 3 4 1015.4 - 0.0 - - 10 - - - -
22/08:30pm 26.0 NE 3 4 1015.1 - 0.0 - - 10 - - - -
22/08:00pm 26.5 NNE 4 6 1014.8 - 0.0 - Partly cloudy 10 - - - -
22/07:30pm 26.9 NNE 4 6 1013.9 - 0.0 - Mostly cloudy 10 - - - -
22/07:00pm 26.9 N 4 6 1014.1 - 0.0 - - 8 - - - -
22/06:30pm 27.4 NNE 6 10 1013.9 - 0.0 - - 10 - - - -
22/06:00pm 28.1 N 8 11 1013.5 - 0.0 - - 10 - - - -
22/05:30pm 28.9 N 8 12 1013.4 - 0.0 - - 10 - - - -
22/05:00pm 29.8 N 9 15 1013.2 - 0.0 - - 10 - - - -
22/04:30pm 30.2 N 10 15 1012.5 - 0.0 - - 10 - - - -
22/04:00pm 31.1 N 10 13 1013.0 - 0.0 - - 9 - - - -
22/03:30pm 32.4 ENE 6 9 1013.1 - 0.0 - - 10 - - - -
22/03:00pm 32.9 ENE 8 13 1013.3 - 0.0 - - 10 - - - -
22/02:30pm 32.9 E 7 10 1013.6 - 0.0 - - 10 - - - -
22/02:00pm 32.4 E 6 9 1014.1 - 0.0 - - 10 - - - -
22/01:30pm 33.0 E 6 10 1014.0 - 0.0 - - 10 - - - -
22/01:00pm 32.2 ENE 7 10 1014.9 - 0.0 - - 10 - - - -
22/12:30pm 31.9 NNE 5 9 1015.3 - 0.0 - - 10 - - - -
22/12:00pm 31.0 N 7 10 1015.4 - 0.0 - - 10 - - - -
22/11:30am 30.9 NE 6 8 1015.7 - 0.0 - - 10 - - - -
22/11:00am 30.7 ESE 5 8 1016.2 - 0.0 - - 10 - - - -
22/10:30am 30.5 ESE 4 5 1016.0 - 0.0 - - 10 - - - -
22/10:00am 29.3 S 3 5 1016.2 - 0.0 - - 10 - - - -
22/09:30am 27.4 SSE 4 5 1016.0 - 0.0 - Partly cloudy 10 - - - -
22/09:00am 25.2 ESE 3 4 1016.0 - 0.0 - Partly cloudy 10 - - - -
22/08:30am 24.1 SSE 4 6 1016.2 - 0.0 - Partly cloudy 10 - - - -
22/08:00am 23.3 SE 4 6 1015.8 - 0.0 - Partly cloudy 10 - - - -
22/07:30am 23.0 SE 5 7 1015.1 - 0.0 - Mostly clear 10 - - - -
22/07:16am 23.0 SSE 6 9 1015.3 - 0.0 - Partly cloudy 5 - - - -
22/07:00am 22.5 CALM 0 0 1014.9 - 0.0 - Partly cloudy 10 - - - -
22/06:30am 22.3 CALM 0 0 1014.6 - 0.0 - - 10 - - - -
22/06:00am 22.5 CALM 0 0 1014.4 - 0.0 - - 10 - - - -
22/05:30am 22.7 CALM 0 0 1014.2 - 0.0 - - 9 - - - -
22/05:00am 22.9 CALM 0 0 1014.1 - 0.0 - - 10 - - - -
22/04:30am 23.0 CALM 0 0 1013.5 - 0.0 - Mostly clear 10 - - - -
22/04:00am 22.8 CALM 0 3 1014.1 - 0.0 - Partly cloudy 9 - - - -
22/03:30am 22.8 CALM 0 0 1014.1 - 0.0 - - 8 - - - -
22/03:00am 23.2 SSW 3 3 1014.4 - 0.0 - - 7 - - - -
22/02:30am 23.7 SW 3 4 1014.6 - 0.0 - - 7 - - - -
22/02:00am 24.4 SSW 4 5 1015.0 - 0.0 - - 10 - - - -
22/01:30am 24.7 SW 4 5 1014.8 - 0.0 - - 10 - - - -
22/01:00am 24.6 SW 4 5 1015.4 - 0.0 - - 9 - - - -
22/12:30am 24.3 CALM 0 0 1015.4 - 0.0 - - 10 - - - -
22/12:00am 24.9 SW 4 6 1015.5 - 0.0 - - 10 - - - -
 
Date/Time
CST
Temp

°C
Wind Pressure Rain
since 9am
mm
Weather Cloud Vis
km
Sea
Height
m
Swell
Dir
 
Speed
knots
Gust
knots
hPa Trend Height
m
Period
s
Dir
21/11:30pm 24.2 W 1 3 1015.4 - 0.0 - - 10 - - - -
21/11:00pm 24.1 CALM 0 0 1015.3 - 0.0 - - 10 - - - -
21/10:30pm 24.0 NNW 1 3 1014.9 - 0.0 - - 10 - - - -
21/10:00pm 24.2 N 2 4 1015.5 - 0.0 - - 10 - - - -
21/09:30pm 24.4 CALM 0 0 1015.4 - 0.0 - - 10 - - - -
21/09:00pm 24.7 CALM 0 0 1015.2 - 0.0 - - 10 - - - -
21/08:30pm 25.6 CALM 0 0 1015.0 - 0.0 - - 10 - - - -
21/08:00pm 25.3 CALM 0 0 1014.4 - 0.0 - - 10 - - - -
21/07:30pm 26.2 N 2 3 1013.7 - 0.0 - - 10 - - - -
21/07:00pm 27.0 N 3 5 1013.9 - 0.0 - - 10 - - - -
21/06:30pm 27.7 N 6 10 1013.6 - 0.0 - - 10 - - - -
21/06:00pm 28.5 N 7 9 1013.3 - 0.0 - - 10 - - - -
21/05:30pm 29.4 N 7 11 1012.9 - 0.0 - - 10 - - - -
21/05:00pm 29.5 N 9 13 1012.7 - 0.0 - - 10 - - - -
21/04:30pm 30.3 N 9 13 1012.1 - 0.0 - - 10 - - - -
21/04:00pm 31.4 N 8 11 1012.4 - 0.0 - - 10 - - - -
21/03:30pm 31.5 N 9 12 1012.4 - 0.0 - - 10 - - - -
21/03:00pm 31.9 N 9 12 1012.6 - 0.0 - - 10 - - - -
21/02:30pm 33.0 N 7 11 1012.8 - 0.0 - - 10 - - - -
21/02:00pm 34.0 NE 5 9 1013.1 - 0.0 - - 10 - - - -
21/01:30pm 33.3 NW 4 9 1013.2 - 0.0 - - 10 - - - -
21/01:00pm 32.5 N 6 11 1014.3 - 0.0 - - 10 - - - -
21/12:30pm 33.5 NE 5 8 1014.6 - 0.0 - - 10 - - - -
21/12:00pm 33.1 NNE 5 8 1015.0 - 0.0 - - 10 - - - -
21/11:30am 32.7 SE 3 5 1015.3 - 0.0 - - 10 - - - -
21/11:00am 31.2 E 3 6 1015.6 - 0.0 - - 10 - - - -
21/10:30am 30.8 E 4 7 1015.4 - 0.0 - - 10 - - - -
21/10:00am 29.6 S 5 7 1015.8 - 0.0 - - 10 - - - -
21/09:30am 28.1 SW 7 11 1015.7 - 0.0 - - 10 - - - -
21/09:00am 27.0 SSW 7 10 1015.6 - 0.0 - - 10 - - - -
21/08:30am 25.6 S 7 9 1015.5 - 0.0 - - 10 - - - -
21/08:00am 24.3 SSW 5 7 1015.3 - 0.0 - - 10 - - - -
21/07:30am 23.8 SW 6 7 1014.4 - 0.0 - - 10 - - - -
21/07:00am 24.2 SSW 6 8 1014.7 - 0.0 - - 10 - - - -
21/06:30am 24.0 SSW 6 7 1014.6 - 0.0 - - 9 - - - -
21/06:00am 24.1 SSW 6 8 1014.3 - 0.0 - - 10 - - - -
21/05:30am 24.1 SSW 6 7 1014.2 - 0.0 - - 8 - - - -
21/05:00am 24.0 SSW 5 7 1014.2 - 0.0 - - 10 - - - -
21/04:30am 24.0 SW 5 6 1013.8 - 0.0 - - 10 - - - -
21/04:00am 24.4 SW 5 6 1014.3 - 0.0 - - 10 - - - -
21/03:30am 24.6 SW 4 5 1014.5 - 0.0 - - 10 - - - -

Other Formats:

Comma delimited format used in spreadsheet applications
http://www.bom.gov.au/fwo/IDD60701/IDD60701.95101.axf

JavaScript Object Notation format (JSON) in row-major order
http://www.bom.gov.au/fwo/IDD60701/IDD60701.95101.json